createdAt,value
2023-03-03T00:01:53.903Z,6.60
2023-03-03T00:04:20.452Z,7.50
2023-03-03T00:06:46.942Z,6.87
2023-03-03T00:09:13.494Z,7.10
2023-03-03T00:11:40.016Z,6.97
2023-03-03T00:14:17.657Z,8.13
2023-03-03T00:16:44.143Z,6.83
2023-03-03T00:19:15.336Z,7.33
2023-03-03T00:21:43.162Z,6.70
2023-03-03T00:24:45.006Z,6.70
2023-03-03T00:27:23.434Z,5.83
2023-03-03T00:29:54.121Z,6.50
2023-03-03T00:32:23.998Z,6.53
2023-03-03T00:34:51.336Z,6.37
2023-03-03T00:37:25.151Z,6.40
2023-03-03T00:39:54.372Z,5.87
2023-03-03T00:42:20.917Z,5.63
2023-03-03T00:45:00.403Z,5.30
2023-03-03T00:47:31.166Z,5.60
2023-03-03T00:50:06.933Z,5.37
2023-03-03T00:52:38.353Z,4.90
2023-03-03T00:55:06.298Z,4.80
2023-03-03T00:57:32.837Z,4.73
2023-03-03T00:59:59.401Z,4.67
2023-03-03T01:02:25.982Z,4.50
2023-03-03T01:04:53.466Z,4.50
2023-03-03T01:07:19.952Z,4.90
2023-03-03T01:09:46.428Z,5.23
2023-03-03T01:12:13.111Z,5.27
2023-03-03T01:14:40.056Z,4.80
2023-03-03T01:17:06.937Z,4.60
2023-03-03T01:19:33.706Z,4.90
2023-03-03T01:22:00.186Z,5.00
2023-03-03T01:24:26.690Z,5.10
2023-03-03T01:26:53.473Z,5.30
2023-03-03T01:29:20.008Z,5.23
2023-03-03T01:31:46.570Z,5.80
2023-03-03T01:34:13.149Z,5.50
2023-03-03T01:36:39.639Z,6.03
2023-03-03T01:39:06.107Z,5.70
2023-03-03T01:41:33.726Z,5.27
2023-03-03T01:44:00.717Z,5.60
2023-03-03T01:46:33.875Z,5.50
2023-03-03T01:49:05.920Z,5.77
2023-03-03T01:51:33.825Z,5.17
2023-03-03T01:54:04.399Z,5.30
2023-03-03T01:56:31.175Z,5.03
2023-03-03T01:59:00.815Z,5.63
2023-03-03T02:01:28.651Z,4.73
2023-03-03T02:04:04.237Z,5.10
2023-03-03T02:06:35.576Z,5.33
2023-03-03T02:09:08.170Z,5.13
2023-03-03T02:11:36.666Z,5.17
2023-03-03T02:14:03.320Z,5.20
2023-03-03T02:16:30.169Z,5.30
2023-03-03T02:18:56.887Z,5.27
2023-03-03T02:21:26.631Z,5.33
2023-03-03T02:24:05.103Z,4.90
2023-03-03T02:26:32.895Z,4.77
2023-03-03T02:28:59.416Z,4.80
2023-03-03T02:31:28.513Z,4.93
2023-03-03T02:33:55.869Z,5.33
2023-03-03T02:36:26.900Z,5.40
2023-03-03T02:38:53.390Z,4.90
2023-03-03T02:41:34.913Z,5.10
2023-03-03T02:47:29.731Z,4.90
2023-03-03T02:50:05.645Z,5.53
2023-03-03T02:52:32.114Z,5.23
2023-03-03T02:54:58.597Z,5.33
2023-03-03T02:57:25.148Z,5.30
2023-03-03T02:59:51.631Z,5.30
2023-03-03T03:02:19.382Z,5.30
2023-03-03T03:04:45.886Z,5.73
2023-03-03T03:07:12.381Z,5.03
2023-03-03T03:09:38.884Z,5.40
2023-03-03T03:12:05.543Z,5.33
2023-03-03T03:14:32.060Z,5.43
2023-03-03T03:16:58.759Z,5.20
2023-03-03T03:19:28.426Z,5.63
2023-03-03T03:21:54.955Z,5.33
2023-03-03T03:24:21.446Z,4.93
2023-03-03T03:26:47.964Z,5.50
2023-03-03T03:29:14.514Z,5.47
2023-03-03T03:31:41.069Z,5.87
2023-03-03T03:34:07.678Z,5.00
2023-03-03T03:36:34.177Z,5.57
2023-03-03T03:39:02.873Z,5.70
2023-03-03T03:41:29.436Z,5.63
2023-03-03T03:43:55.952Z,6.90
2023-03-03T03:46:22.542Z,6.10
2023-03-03T03:48:49.115Z,5.73
2023-03-03T03:51:15.625Z,5.93
2023-03-03T03:53:42.194Z,6.30
2023-03-03T03:56:08.706Z,6.40
2023-03-03T03:58:35.182Z,5.87
2023-03-03T04:01:02.914Z,6.87
2023-03-03T04:03:29.450Z,5.43
2023-03-03T04:05:55.947Z,6.50
2023-03-03T04:08:22.452Z,6.53
2023-03-03T04:10:49.215Z,5.97
2023-03-03T04:13:15.698Z,5.87
2023-03-03T04:15:42.534Z,6.77
2023-03-03T04:18:09.076Z,5.87
2023-03-03T04:20:35.603Z,5.83
2023-03-03T04:23:02.151Z,5.40
2023-03-03T04:25:28.704Z,6.17
2023-03-03T04:27:55.172Z,6.20
2023-03-03T04:30:21.665Z,5.77
2023-03-03T04:33:00.433Z,5.97
2023-03-03T04:35:27.058Z,5.30
2023-03-03T04:37:53.937Z,5.13
2023-03-03T04:40:20.581Z,5.73
2023-03-03T04:42:47.116Z,5.23
2023-03-03T04:45:13.618Z,5.37
2023-03-03T04:47:40.522Z,5.40
2023-03-03T04:50:08.063Z,5.13
2023-03-03T04:52:34.632Z,5.77
2023-03-03T04:55:01.178Z,5.80
2023-03-03T05:01:26.653Z,5.13
2023-03-03T05:03:53.171Z,5.20
2023-03-03T05:06:19.808Z,5.90
2023-03-03T05:08:46.401Z,6.43
2023-03-03T05:11:17.438Z,5.77
2023-03-03T05:13:44.493Z,5.87
2023-03-03T05:16:25.404Z,5.57
2023-03-03T05:18:52.018Z,5.57
2023-03-03T05:21:18.576Z,6.13
2023-03-03T05:23:45.115Z,6.00
2023-03-03T05:26:11.621Z,5.87
2023-03-03T05:28:38.211Z,5.37
2023-03-03T05:31:05.064Z,7.03
2023-03-03T05:33:31.575Z,5.30
2023-03-03T05:35:58.129Z,6.10
2023-03-03T05:38:24.996Z,5.67
2023-03-03T05:40:51.788Z,5.83
2023-03-03T05:43:21.263Z,5.53
2023-03-03T05:45:47.931Z,5.13
2023-03-03T05:48:14.443Z,6.20
2023-03-03T05:50:40.979Z,8.63
2023-03-03T05:53:07.510Z,6.80
2023-03-03T05:55:34.253Z,5.77
2023-03-03T05:58:00.747Z,4.80
2023-03-03T06:00:27.283Z,5.13
2023-03-03T06:02:54.038Z,5.10
2023-03-03T06:05:20.678Z,6.73
2023-03-03T06:07:47.243Z,5.40
2023-03-03T06:10:13.848Z,4.67
2023-03-03T06:12:42.176Z,6.23
2023-03-03T06:15:09.589Z,6.97
2023-03-03T06:17:36.224Z,6.90
2023-03-03T06:20:04.210Z,7.63
2023-03-03T06:22:30.863Z,5.90
2023-03-03T06:24:57.384Z,5.57
2023-03-03T06:27:23.912Z,4.97
2023-03-03T06:29:50.534Z,5.23
2023-03-03T06:32:17.134Z,5.33
2023-03-03T06:34:43.667Z,5.07
2023-03-03T06:37:10.297Z,4.57
2023-03-03T06:39:39.857Z,4.97
2023-03-03T06:45:53.214Z,4.43
2023-03-03T06:48:20.000Z,5.07
2023-03-03T06:50:46.579Z,4.47
2023-03-03T06:53:14.563Z,4.00
2023-03-03T06:55:44.460Z,5.80
2023-03-03T06:58:15.152Z,13.17
2023-03-03T07:00:55.333Z,4.43
2023-03-03T07:03:23.439Z,4.20
2023-03-03T07:05:50.040Z,4.83
2023-03-03T07:08:18.587Z,4.77
2023-03-03T07:10:47.063Z,4.00
2023-03-03T07:13:22.317Z,3.90
2023-03-03T07:15:53.010Z,4.37
2023-03-03T07:18:22.642Z,4.03
2023-03-03T07:20:49.720Z,4.00
2023-03-03T07:23:27.919Z,3.90
2023-03-03T07:25:54.476Z,3.77
2023-03-03T07:28:23.859Z,3.40
2023-03-03T07:30:51.531Z,3.40
2023-03-03T07:33:40.317Z,3.27
2023-03-03T07:36:07.145Z,3.13
2023-03-03T07:38:38.265Z,3.90
2023-03-03T07:41:17.685Z,3.60
2023-03-03T07:43:50.735Z,3.23
2023-03-03T07:46:23.047Z,3.30
2023-03-03T07:48:49.601Z,5.30
2023-03-03T07:51:25.376Z,3.83
2023-03-03T07:54:00.779Z,3.60
2023-03-03T07:56:29.737Z,3.90
2023-03-03T07:58:59.672Z,3.13
2023-03-03T08:01:32.156Z,4.03
2023-03-03T08:03:58.723Z,3.90
2023-03-03T08:06:31.999Z,3.33
2023-03-03T08:09:21.765Z,5.53
2023-03-03T08:11:55.621Z,3.60
2023-03-03T08:14:30.493Z,3.07
2023-03-03T08:16:59.837Z,7.87
2023-03-03T08:19:38.269Z,2.70
2023-03-03T08:22:37.261Z,3.60
2023-03-03T08:25:03.861Z,3.63
2023-03-03T08:27:33.257Z,3.77
2023-03-03T08:29:59.863Z,3.27
2023-03-03T08:32:26.674Z,4.47
2023-03-03T08:34:53.215Z,4.90
2023-03-03T08:37:19.793Z,3.80
2023-03-03T08:39:51.353Z,4.47
2023-03-03T08:42:18.464Z,4.43
2023-03-03T08:44:45.047Z,3.13
2023-03-03T08:47:11.606Z,3.43
2023-03-03T08:49:38.158Z,5.27
2023-03-03T08:52:04.738Z,3.43
2023-03-03T08:54:34.368Z,3.57
2023-03-03T08:57:00.937Z,3.17
2023-03-03T08:59:27.443Z,4.03
2023-03-03T09:01:54.050Z,4.03
2023-03-03T09:04:20.881Z,5.03
2023-03-03T09:06:48.630Z,4.17
2023-03-03T09:09:18.468Z,3.80
2023-03-03T09:11:47.833Z,3.37
2023-03-03T09:14:16.116Z,4.17
2023-03-03T09:16:48.375Z,3.30
2023-03-03T09:19:26.999Z,4.03
2023-03-03T09:21:56.899Z,2.87
2023-03-03T09:24:27.535Z,5.43
2023-03-03T09:26:59.105Z,4.43
2023-03-03T09:29:25.754Z,3.83
2023-03-03T09:31:53.458Z,4.90
2023-03-03T09:34:38.648Z,5.30
2023-03-03T09:37:32.562Z,3.60
2023-03-03T09:39:59.174Z,4.17
2023-03-03T09:42:28.771Z,4.93
2023-03-03T09:45:04.667Z,3.80
2023-03-03T09:47:50.074Z,4.63
2023-03-03T09:50:22.803Z,3.07
2023-03-03T09:52:57.264Z,3.43
2023-03-03T09:55:36.958Z,2.40
2023-03-03T09:58:10.951Z,3.30
2023-03-03T10:00:44.108Z,3.00
2023-03-03T10:03:10.739Z,2.83
2023-03-03T10:05:45.429Z,2.97
2023-03-03T10:08:31.707Z,4.53
2023-03-03T10:11:16.694Z,2.50
2023-03-03T10:13:55.371Z,2.47
2023-03-03T10:16:46.362Z,2.27
2023-03-03T10:19:24.837Z,2.93
2023-03-03T10:21:53.997Z,2.97
2023-03-03T10:24:23.568Z,2.27
2023-03-03T10:27:13.737Z,1.87
2023-03-03T10:30:07.135Z,2.40
2023-03-03T10:32:39.690Z,5.23
2023-03-03T10:35:06.264Z,2.87
2023-03-03T10:37:51.275Z,5.03
2023-03-03T10:40:17.784Z,4.83
2023-03-03T10:42:52.967Z,2.77
2023-03-03T10:45:31.277Z,2.90
2023-03-03T10:48:16.323Z,3.30
2023-03-03T10:50:45.772Z,3.33
2023-03-03T10:53:32.887Z,3.20
2023-03-03T10:56:17.825Z,2.90
2023-03-03T10:58:44.426Z,5.90
2023-03-03T11:01:33.470Z,2.57
2023-03-03T11:04:02.723Z,4.80
2023-03-03T11:06:40.642Z,3.27
2023-03-03T11:09:26.034Z,2.43
2023-03-03T11:12:01.924Z,2.93
2023-03-03T11:14:47.971Z,5.03
2023-03-03T11:17:20.627Z,3.33
2023-03-03T11:19:53.627Z,1.77
2023-03-03T11:22:38.908Z,1.50
2023-03-03T11:25:24.275Z,2.20
2023-03-03T11:27:53.862Z,2.83
2023-03-03T11:30:46.791Z,2.97
2023-03-03T11:33:16.900Z,3.40
2023-03-03T11:35:49.503Z,1.47
2023-03-03T11:38:19.085Z,3.63
2023-03-03T11:40:48.692Z,2.70
2023-03-03T11:43:26.324Z,2.43
2023-03-03T11:46:04.500Z,2.23
2023-03-03T11:48:37.149Z,1.50
2023-03-03T11:51:03.625Z,2.87
2023-03-03T11:53:36.225Z,1.67
2023-03-03T11:56:08.738Z,1.67
2023-03-03T11:58:40.689Z,3.67
2023-03-03T12:01:26.159Z,3.77
2023-03-03T12:04:02.101Z,1.37
2023-03-03T12:06:28.607Z,5.80
2023-03-03T12:08:55.062Z,3.37
2023-03-03T12:11:32.384Z,2.27
2023-03-03T12:14:17.388Z,2.17
2023-03-03T12:16:56.467Z,2.53
2023-03-03T12:19:22.994Z,3.67
2023-03-03T12:21:49.502Z,2.57
2023-03-03T12:24:16.021Z,1.00
2023-03-03T12:26:45.629Z,1.00
2023-03-03T12:29:24.429Z,1.50
2023-03-03T12:32:09.823Z,3.33
2023-03-03T12:34:54.593Z,4.07
2023-03-03T12:37:35.056Z,3.03
2023-03-03T12:40:07.237Z,3.53
2023-03-03T12:42:42.744Z,1.43
2023-03-03T12:45:27.750Z,1.50
2023-03-03T12:48:21.694Z,1.93
2023-03-03T12:51:13.619Z,3.40
2023-03-03T12:54:04.886Z,4.30
2023-03-03T12:56:54.587Z,2.73
2023-03-03T12:59:47.949Z,1.80
2023-03-03T13:02:57.984Z,1.00
2023-03-03T13:06:04.303Z,1.30
2023-03-03T13:08:55.410Z,1.63
2023-03-03T13:11:50.946Z,1.50
2023-03-03T13:14:39.868Z,2.43
2023-03-03T13:17:43.529Z,1.37
2023-03-03T13:20:34.494Z,1.60
2023-03-03T13:23:31.899Z,1.10
2023-03-03T13:26:16.869Z,1.33
2023-03-03T13:29:04.589Z,0.90
2023-03-03T13:31:52.724Z,1.80
2023-03-03T13:34:38.108Z,1.97
2023-03-03T13:37:36.365Z,1.60
2023-03-03T13:40:41.760Z,1.93
2023-03-03T13:43:28.722Z,1.20
2023-03-03T13:46:14.663Z,1.53
2023-03-03T13:49:18.010Z,1.83
2023-03-03T13:52:08.142Z,4.23
2023-03-03T13:54:57.484Z,1.10
2023-03-03T13:57:45.741Z,1.23
2023-03-03T14:00:45.971Z,2.87
2023-03-03T14:03:33.419Z,2.57
2023-03-03T14:06:21.559Z,2.03
2023-03-03T14:09:10.986Z,1.50
2023-03-03T14:12:11.768Z,2.63
2023-03-03T14:14:59.679Z,3.07
2023-03-03T14:17:57.874Z,2.90
2023-03-03T14:20:48.324Z,4.30
2023-03-03T14:23:51.959Z,4.53
2023-03-03T14:26:50.273Z,6.50
2023-03-03T14:29:35.619Z,3.97
2023-03-03T14:32:30.478Z,1.80
2023-03-03T14:35:21.400Z,2.30
2023-03-03T14:38:17.089Z,3.57
2023-03-03T14:41:11.498Z,2.80
2023-03-03T14:43:57.908Z,3.20
2023-03-03T14:46:44.999Z,3.37
2023-03-03T14:49:32.714Z,3.17
2023-03-03T14:52:21.035Z,2.37
2023-03-03T14:55:26.221Z,2.40
2023-03-03T14:58:28.115Z,4.17
2023-03-03T15:01:23.688Z,3.63
2023-03-03T15:04:15.086Z,2.77
2023-03-03T15:06:54.973Z,4.57
2023-03-03T15:09:38.559Z,2.77
2023-03-03T15:12:22.714Z,3.60
2023-03-03T15:14:52.525Z,4.03
2023-03-03T15:17:21.491Z,5.70
2023-03-03T15:20:14.875Z,6.33
2023-03-03T15:22:50.276Z,3.70
2023-03-03T15:25:20.954Z,3.00
2023-03-03T15:28:08.218Z,5.20
2023-03-03T15:30:41.654Z,6.63
2023-03-03T15:33:37.540Z,4.10
2023-03-03T15:36:33.450Z,3.97
2023-03-03T15:39:10.186Z,5.17
2023-03-03T15:41:45.723Z,3.33
2023-03-03T15:44:14.861Z,2.90
2023-03-03T15:46:52.887Z,2.17
2023-03-03T15:49:31.140Z,5.47
2023-03-03T15:52:03.915Z,2.87
2023-03-03T15:54:50.892Z,4.93
2023-03-03T15:57:33.258Z,4.20
2023-03-03T16:15:33.568Z,4.80
2023-03-03T16:18:00.108Z,7.53
2023-03-03T16:20:32.739Z,4.07
2023-03-03T16:23:02.258Z,5.67
2023-03-03T16:25:52.010Z,7.17
2023-03-03T16:28:35.521Z,16.93
2023-03-03T16:31:13.696Z,9.00
2023-03-03T16:33:49.536Z,5.17
2023-03-03T16:36:19.027Z,4.40
2023-03-03T16:38:50.309Z,5.27
2023-03-03T16:41:35.249Z,4.33
2023-03-03T16:44:06.696Z,5.57
2023-03-03T16:46:33.304Z,6.93
2023-03-03T16:49:03.026Z,5.93
2023-03-03T16:51:41.601Z,4.70
2023-03-03T16:54:08.198Z,5.10
2023-03-03T16:56:37.676Z,9.93
2023-03-03T16:59:06.868Z,29.40
2023-03-03T17:01:36.186Z,15.53
2023-03-03T17:04:05.293Z,22.53
2023-03-03T17:06:31.825Z,12.63
2023-03-03T17:09:30.092Z,11.17
2023-03-03T17:12:23.617Z,10.93
2023-03-03T17:15:08.730Z,7.67
2023-03-03T17:17:38.388Z,5.93
2023-03-03T17:20:14.102Z,5.63
2023-03-03T17:22:59.070Z,5.23
2023-03-03T17:25:45.873Z,6.77
2023-03-03T17:28:22.539Z,6.40
2023-03-03T17:30:58.293Z,7.73
2023-03-03T17:33:39.894Z,7.37
2023-03-03T17:36:18.432Z,5.57
2023-03-03T17:39:03.840Z,6.77
2023-03-03T17:41:42.691Z,8.97
2023-03-03T17:44:18.619Z,5.77
2023-03-03T17:47:10.230Z,7.30
2023-03-03T17:49:55.226Z,4.87
2023-03-03T17:52:23.046Z,5.73
2023-03-03T17:55:13.006Z,6.23
2023-03-03T18:01:26.120Z,5.10
2023-03-03T18:04:14.644Z,4.17
2023-03-03T18:06:48.333Z,4.73
2023-03-03T18:09:17.828Z,5.57
2023-03-03T18:11:56.789Z,6.70
2023-03-03T18:14:26.399Z,7.13
2023-03-03T18:16:58.898Z,7.57
2023-03-03T18:19:28.362Z,7.50
2023-03-03T18:22:05.550Z,6.23
2023-03-03T18:24:39.566Z,5.40
2023-03-03T18:27:24.486Z,5.20
2023-03-03T18:37:31.503Z,6.80
2023-03-03T18:40:03.887Z,4.20
2023-03-03T18:42:39.423Z,5.57
2023-03-03T18:45:14.987Z,4.43
2023-03-03T18:47:59.861Z,5.67
2023-03-03T18:50:59.162Z,4.73
2023-03-03T18:53:25.741Z,3.50
2023-03-03T18:55:54.005Z,5.13
2023-03-03T18:58:20.545Z,7.20
2023-03-03T19:00:54.737Z,6.70
2023-03-03T19:03:29.270Z,5.90
2023-03-03T19:06:33.521Z,5.97
2023-03-03T19:09:00.484Z,4.40
2023-03-03T19:11:37.644Z,4.47
2023-03-03T19:14:14.595Z,3.47
2023-03-03T19:16:41.147Z,4.93
2023-03-03T19:19:09.568Z,6.90
2023-03-03T19:21:37.037Z,4.60
2023-03-03T19:24:05.210Z,8.43
2023-03-03T19:26:40.379Z,8.50
2023-03-03T19:29:21.527Z,8.57
2023-03-03T19:32:14.501Z,4.07
2023-03-03T19:34:59.742Z,5.97
2023-03-03T19:37:49.255Z,5.37
2023-03-03T19:40:15.758Z,6.80
2023-03-03T19:42:46.532Z,5.50
2023-03-03T19:45:38.636Z,4.83
2023-03-03T19:48:05.276Z,4.23
2023-03-03T19:51:07.169Z,3.80
2023-03-03T19:53:39.337Z,3.53
2023-03-03T19:56:20.709Z,3.80
2023-03-03T19:58:56.092Z,5.47
2023-03-03T20:01:31.552Z,4.87
2023-03-03T20:04:09.882Z,5.40
2023-03-03T20:06:54.789Z,3.27
2023-03-03T20:09:36.290Z,4.73
2023-03-03T20:12:16.490Z,4.80
2023-03-03T20:14:57.838Z,4.20
2023-03-03T20:17:34.641Z,3.63
2023-03-03T20:20:23.430Z,3.70
2023-03-03T20:23:04.230Z,3.00
2023-03-03T20:25:43.578Z,3.63
2023-03-03T20:28:30.387Z,3.77
2023-03-03T20:31:05.972Z,4.20
2023-03-03T20:33:35.551Z,4.93
2023-03-03T20:36:10.475Z,3.27
2023-03-03T20:38:47.532Z,3.30
2023-03-03T20:41:22.997Z,2.70
2023-03-03T20:43:54.617Z,3.30
2023-03-03T20:47:01.753Z,2.53
2023-03-03T20:49:37.677Z,3.73
2023-03-03T20:52:22.837Z,6.97
2023-03-03T20:55:10.499Z,5.63
2023-03-03T20:57:39.420Z,4.13
2023-03-03T21:00:06.138Z,4.23
2023-03-03T21:02:32.727Z,4.80
2023-03-03T21:05:14.165Z,4.97
2023-03-03T21:07:50.654Z,4.17
2023-03-03T21:10:40.799Z,4.73
2023-03-03T21:13:27.767Z,3.10
2023-03-03T21:15:55.232Z,4.50
2023-03-03T21:18:23.848Z,3.03
2023-03-03T21:20:51.025Z,3.13
2023-03-03T21:23:17.946Z,4.43
2023-03-03T21:25:44.466Z,3.77
2023-03-03T21:28:21.452Z,4.17
2023-03-03T21:31:01.112Z,4.90
2023-03-03T21:33:39.547Z,4.70
2023-03-03T21:36:07.288Z,3.97
2023-03-03T21:38:34.840Z,4.93
2023-03-03T21:41:01.895Z,3.97
2023-03-03T21:43:34.824Z,3.87
2023-03-03T21:46:01.548Z,3.80
2023-03-03T21:48:33.931Z,4.57
2023-03-03T21:51:00.509Z,4.47
2023-03-03T21:53:29.702Z,4.23
2023-03-03T21:55:56.552Z,3.07
2023-03-03T21:58:23.190Z,3.80
2023-03-03T22:00:49.868Z,3.80
2023-03-03T22:03:20.015Z,4.00
2023-03-03T22:09:42.164Z,6.30
2023-03-03T22:12:08.839Z,4.17
2023-03-03T22:14:35.435Z,4.77
2023-03-03T22:17:02.266Z,4.17
2023-03-03T22:19:28.805Z,3.90
2023-03-03T22:21:55.406Z,3.57
2023-03-03T22:24:22.032Z,4.30
2023-03-03T22:26:48.629Z,6.07
2023-03-03T22:29:22.888Z,3.87
2023-03-03T22:31:50.239Z,5.10
2023-03-03T22:34:16.997Z,4.97
2023-03-03T22:36:43.630Z,3.87
2023-03-03T22:39:10.669Z,6.87
2023-03-03T22:41:37.294Z,6.87
2023-03-03T22:44:03.977Z,6.07
2023-03-03T22:46:30.638Z,5.43
2023-03-03T22:48:57.354Z,6.23
2023-03-03T22:55:11.812Z,5.13
2023-03-03T22:57:38.505Z,5.67
2023-03-03T23:00:11.834Z,5.33
2023-03-03T23:02:47.595Z,6.33
2023-03-03T23:12:22.982Z,7.13
2023-03-03T23:15:16.142Z,5.37
2023-03-03T23:17:46.089Z,5.60
2023-03-03T23:20:26.356Z,6.33
2023-03-03T23:22:53.291Z,7.37
2023-03-03T23:25:23.636Z,6.53
2023-03-03T23:27:50.562Z,7.43
2023-03-03T23:30:19.102Z,8.40
2023-03-03T23:32:46.362Z,15.30
2023-03-03T23:35:13.103Z,6.93
2023-03-03T23:37:39.952Z,6.73
2023-03-03T23:40:07.015Z,6.57
2023-03-03T23:42:33.671Z,7.97
2023-03-03T23:45:18.932Z,7.63
2023-03-03T23:47:45.874Z,7.00
2023-03-03T23:50:12.937Z,6.90
2023-03-03T23:52:39.828Z,8.47
2023-03-03T23:55:06.898Z,5.90
2023-03-03T23:57:33.549Z,8.27
